Armada Township, Michigan
Current Conditions -  °F | °C
As of 3:28 AM on Saturday 20 Dec 2014 (Local Time) from KMTC Reporting Station
Broken Clouds Broken Clouds  
Wind Chill: 21°   Ceiling: 2800
Heat Index: 21°   Visibility: 10mi
Dew Point: 21°   Wind: 2mph
Humidity: 100%   Direction: 290°WNW
Pressure: 30.27"   Gusts: NA
Location:  42.8463°N, 82.9201°W
Report Text: KMTC 200828Z AUTO 29002KT 10SM BKN028 M06/M06 A3027 RMK AO2 BKN V SCT $
Loading
Personal Weather Stations






























Interactive Weather Map New forecast layout! Learn more

10-Day Weather Forecast

Advertisements
Track Severe Weather on mobile